sensor_id;sensor_type;location;lat;lon;timestamp;temperature;humidity
1135;DHT22;556;53.550;10.048;2022-08-21T00:00:46;20.70;43.80
1135;DHT22;556;53.550;10.048;2022-08-21T00:03:15;20.70;43.90
1135;DHT22;556;53.550;10.048;2022-08-21T00:05:46;20.70;44.10
1135;DHT22;556;53.550;10.048;2022-08-21T00:08:15;20.60;44.10
1135;DHT22;556;53.550;10.048;2022-08-21T00:10:44;20.60;44.10
1135;DHT22;556;53.550;10.048;2022-08-21T00:13:11;20.60;44.20
1135;DHT22;556;53.550;10.048;2022-08-21T00:15:40;20.50;44.20
1135;DHT22;556;53.550;10.048;2022-08-21T00:18:09;20.50;44.30
1135;DHT22;556;53.550;10.048;2022-08-21T00:20:40;20.50;43.90
1135;DHT22;556;53.550;10.048;2022-08-21T00:23:07;20.50;44.50
1135;DHT22;556;53.550;10.048;2022-08-21T00:25:35;20.50;44.50
1135;DHT22;556;53.550;10.048;2022-08-21T00:28:03;20.50;44.60
1135;DHT22;556;53.550;10.048;2022-08-21T00:30:30;20.50;44.70
1135;DHT22;556;53.550;10.048;2022-08-21T00:32:59;20.50;44.70
1135;DHT22;556;53.550;10.048;2022-08-21T00:35:30;20.40;44.70
1135;DHT22;556;53.550;10.048;2022-08-21T00:37:59;20.40;44.90
1135;DHT22;556;53.550;10.048;2022-08-21T00:40:29;20.40;44.90
1135;DHT22;556;53.550;10.048;2022-08-21T00:42:56;20.40;45.00
1135;DHT22;556;53.550;10.048;2022-08-21T00:45:24;20.30;45.00
1135;DHT22;556;53.550;10.048;2022-08-21T00:47:53;20.30;45.00
1135;DHT22;556;53.550;10.048;2022-08-21T00:50:21;20.30;45.10
1135;DHT22;556;53.550;10.048;2022-08-21T00:52:49;20.30;45.20
1135;DHT22;556;53.550;10.048;2022-08-21T00:55:20;20.30;45.30
1135;DHT22;556;53.550;10.048;2022-08-21T00:57:52;20.30;45.40
1135;DHT22;556;53.550;10.048;2022-08-21T01:00:23;20.30;45.50
1135;DHT22;556;53.550;10.048;2022-08-21T01:02:50;20.20;45.50
1135;DHT22;556;53.550;10.048;2022-08-21T01:05:18;20.20;45.60
1135;DHT22;556;53.550;10.048;2022-08-21T01:07:46;20.20;45.70
1135;DHT22;556;53.550;10.048;2022-08-21T01:10:13;20.20;45.80
1135;DHT22;556;53.550;10.048;2022-08-21T01:12:42;20.20;45.90
1135;DHT22;556;53.550;10.048;2022-08-21T01:15:10;20.20;46.00
1135;DHT22;556;53.550;10.048;2022-08-21T01:17:41;20.20;46.10
1135;DHT22;556;53.550;10.048;2022-08-21T01:20:10;20.20;46.20
1135;DHT22;556;53.550;10.048;2022-08-21T01:22:42;20.20;46.40
1135;DHT22;556;53.550;10.048;2022-08-21T01:25:11;20.10;46.30
1135;DHT22;556;53.550;10.048;2022-08-21T01:27:39;20.10;46.10
1135;DHT22;556;53.550;10.048;2022-08-21T01:30:10;20.10;46.60
1135;DHT22;556;53.550;10.048;2022-08-21T01:32:39;20.10;46.60
1135;DHT22;556;53.550;10.048;2022-08-21T01:35:07;20.10;46.80
1135;DHT22;556;53.550;10.048;2022-08-21T01:37:35;20.00;46.80
1135;DHT22;556;53.550;10.048;2022-08-21T01:40:05;20.00;46.80
1135;DHT22;556;53.550;10.048;2022-08-21T01:42:34;20.00;47.00
1135;DHT22;556;53.550;10.048;2022-08-21T01:45:01;20.00;47.00
1135;DHT22;556;53.550;10.048;2022-08-21T01:47:29;20.00;47.10
1135;DHT22;556;53.550;10.048;2022-08-21T01:49:56;20.00;47.20
1135;DHT22;556;53.550;10.048;2022-08-21T01:52:24;20.00;47.20
1135;DHT22;556;53.550;10.048;2022-08-21T01:54:51;19.90;47.20
1135;DHT22;556;53.550;10.048;2022-08-21T01:57:20;19.90;47.30
1135;DHT22;556;53.550;10.048;2022-08-21T01:59:48;19.90;47.40
1135;DHT22;556;53.550;10.048;2022-08-21T02:02:15;19.90;47.40
1135;DHT22;556;53.550;10.048;2022-08-21T02:04:42;19.90;47.50
1135;DHT22;556;53.550;10.048;2022-08-21T02:07:09;19.90;47.50
1135;DHT22;556;53.550;10.048;2022-08-21T02:09:37;19.90;47.60
1135;DHT22;556;53.550;10.048;2022-08-21T02:12:04;19.90;47.70
1135;DHT22;556;53.550;10.048;2022-08-21T02:14:33;19.90;47.80
1135;DHT22;556;53.550;10.048;2022-08-21T02:17:01;19.80;47.70
1135;DHT22;556;53.550;10.048;2022-08-21T02:19:28;19.90;47.90
1135;DHT22;556;53.550;10.048;2022-08-21T02:21:55;19.90;47.90
1135;DHT22;556;53.550;10.048;2022-08-21T02:24:22;19.80;47.90
1135;DHT22;556;53.550;10.048;2022-08-21T02:26:49;19.80;48.00
1135;DHT22;556;53.550;10.048;2022-08-21T02:29:17;19.80;48.10
1135;DHT22;556;53.550;10.048;2022-08-21T02:31:46;19.70;48.10
1135;DHT22;556;53.550;10.048;2022-08-21T02:34:14;19.70;48.20
1135;DHT22;556;53.550;10.048;2022-08-21T02:36:53;19.70;48.20
1135;DHT22;556;53.550;10.048;2022-08-21T02:39:20;19.60;48.20
1135;DHT22;556;53.550;10.048;2022-08-21T02:41:47;19.60;48.30
1135;DHT22;556;53.550;10.048;2022-08-21T02:44:15;19.60;48.40
1135;DHT22;556;53.550;10.048;2022-08-21T02:46:42;19.60;48.30
1135;DHT22;556;53.550;10.048;2022-08-21T02:49:11;19.60;48.30
1135;DHT22;556;53.550;10.048;2022-08-21T02:51:39;19.70;48.30
1135;DHT22;556;53.550;10.048;2022-08-21T02:54:07;19.70;48.20
1135;DHT22;556;53.550;10.048;2022-08-21T02:56:34;19.70;48.20
1135;DHT22;556;53.550;10.048;2022-08-21T02:59:01;19.60;48.20
1135;DHT22;556;53.550;10.048;2022-08-21T03:01:28;19.50;47.90
1135;DHT22;556;53.550;10.048;2022-08-21T03:03:55;19.50;48.40
1135;DHT22;556;53.550;10.048;2022-08-21T03:06:25;19.40;48.40
1135;DHT22;556;53.550;10.048;2022-08-21T03:08:53;19.40;48.50
1135;DHT22;556;53.550;10.048;2022-08-21T03:11:20;19.40;48.50
1135;DHT22;556;53.550;10.048;2022-08-21T03:13:48;19.30;48.40
1135;DHT22;556;53.550;10.048;2022-08-21T03:16:15;19.30;48.50
1135;DHT22;556;53.550;10.048;2022-08-21T03:18:44;19.20;48.40
1135;DHT22;556;53.550;10.048;2022-08-21T03:21:12;19.30;48.60
1135;DHT22;556;53.550;10.048;2022-08-21T03:23:40;19.20;48.50
1135;DHT22;556;53.550;10.048;2022-08-21T03:26:08;19.20;48.70
1135;DHT22;556;53.550;10.048;2022-08-21T03:28:36;19.20;48.70
1135;DHT22;556;53.550;10.048;2022-08-21T03:31:04;19.20;48.60
1135;DHT22;556;53.550;10.048;2022-08-21T03:33:31;19.20;48.60
1135;DHT22;556;53.550;10.048;2022-08-21T03:36:03;19.20;48.20
1135;DHT22;556;53.550;10.048;2022-08-21T03:38:32;19.20;48.70
1135;DHT22;556;53.550;10.048;2022-08-21T03:41:04;19.20;48.70
1135;DHT22;556;53.550;10.048;2022-08-21T03:43:32;19.10;48.20
1135;DHT22;556;53.550;10.048;2022-08-21T03:46:00;19.10;48.70
1135;DHT22;556;53.550;10.048;2022-08-21T03:48:29;19.10;48.80
1135;DHT22;556;53.550;10.048;2022-08-21T03:50:57;19.10;48.90
1135;DHT22;556;53.550;10.048;2022-08-21T03:53:25;19.00;48.80
1135;DHT22;556;53.550;10.048;2022-08-21T03:55:53;19.00;48.90
1135;DHT22;556;53.550;10.048;2022-08-21T03:58:23;19.00;48.50
1135;DHT22;556;53.550;10.048;2022-08-21T04:00:55;18.90;48.90
1135;DHT22;556;53.550;10.048;2022-08-21T04:03:24;18.90;49.00
1135;DHT22;556;53.550;10.048;2022-08-21T04:05:52;18.90;49.00
1135;DHT22;556;53.550;10.048;2022-08-21T04:08:19;18.90;49.00
1135;DHT22;556;53.550;10.048;2022-08-21T04:10:50;18.80;48.90
1135;DHT22;556;53.550;10.048;2022-08-21T04:13:18;18.90;49.10
1135;DHT22;556;53.550;10.048;2022-08-21T04:15:47;18.80;49.00
1135;DHT22;556;53.550;10.048;2022-08-21T04:18:15;18.80;49.10
1135;DHT22;556;53.550;10.048;2022-08-21T04:20:45;18.80;49.10
1135;DHT22;556;53.550;10.048;2022-08-21T04:23:13;18.80;49.10
1135;DHT22;556;53.550;10.048;2022-08-21T04:25:40;18.80;49.10
1135;DHT22;556;53.550;10.048;2022-08-21T04:28:08;18.80;49.10
1135;DHT22;556;53.550;10.048;2022-08-21T04:30:36;18.90;49.20
1135;DHT22;556;53.550;10.048;2022-08-21T04:33:07;18.90;49.20
1135;DHT22;556;53.550;10.048;2022-08-21T04:35:35;18.90;49.10
1135;DHT22;556;53.550;10.048;2022-08-21T04:38:03;19.00;49.10
1135;DHT22;556;53.550;10.048;2022-08-21T04:40:30;19.10;49.10
1135;DHT22;556;53.550;10.048;2022-08-21T04:43:03;19.30;49.10
1135;DHT22;556;53.550;10.048;2022-08-21T04:45:32;19.40;49.00
1135;DHT22;556;53.550;10.048;2022-08-21T04:48:02;19.50;48.90
1135;DHT22;556;53.550;10.048;2022-08-21T04:50:37;19.70;48.90
1135;DHT22;556;53.550;10.048;2022-08-21T04:53:09;19.80;48.90
1135;DHT22;556;53.550;10.048;2022-08-21T04:55:37;19.90;48.90
1135;DHT22;556;53.550;10.048;2022-08-21T04:58:05;20.00;48.90
1135;DHT22;556;53.550;10.048;2022-08-21T05:00:34;20.10;48.90
1135;DHT22;556;53.550;10.048;2022-08-21T05:03:03;20.20;48.90
1135;DHT22;556;53.550;10.048;2022-08-21T05:05:33;20.30;48.90
1135;DHT22;556;53.550;10.048;2022-08-21T05:08:03;20.30;48.80
1135;DHT22;556;53.550;10.048;2022-08-21T05:10:33;20.40;48.90
1135;DHT22;556;53.550;10.048;2022-08-21T05:13:00;20.50;48.90
1135;DHT22;556;53.550;10.048;2022-08-21T05:15:27;20.50;48.90
1135;DHT22;556;53.550;10.048;2022-08-21T05:17:56;20.50;48.80
1135;DHT22;556;53.550;10.048;2022-08-21T05:20:24;20.60;48.80
1135;DHT22;556;53.550;10.048;2022-08-21T05:22:53;20.60;48.70
1135;DHT22;556;53.550;10.048;2022-08-21T05:25:22;20.70;48.80
1135;DHT22;556;53.550;10.048;2022-08-21T05:27:50;20.80;48.80
1135;DHT22;556;53.550;10.048;2022-08-21T05:30:17;20.90;48.60
1135;DHT22;556;53.550;10.048;2022-08-21T05:32:44;21.00;48.60
1135;DHT22;556;53.550;10.048;2022-08-21T05:35:13;21.10;48.60
1135;DHT22;556;53.550;10.048;2022-08-21T05:37:41;21.20;48.50
1135;DHT22;556;53.550;10.048;2022-08-21T05:40:11;21.30;48.50
1135;DHT22;556;53.550;10.048;2022-08-21T05:42:38;21.30;48.40
1135;DHT22;556;53.550;10.048;2022-08-21T05:45:07;21.50;48.40
1135;DHT22;556;53.550;10.048;2022-08-21T05:47:35;21.50;48.20
1135;DHT22;556;53.550;10.048;2022-08-21T05:50:04;21.70;48.20
1135;DHT22;556;53.550;10.048;2022-08-21T05:52:32;21.70;48.10
1135;DHT22;556;53.550;10.048;2022-08-21T05:54:59;21.80;48.10
1135;DHT22;556;53.550;10.048;2022-08-21T05:57:28;21.90;48.00
1135;DHT22;556;53.550;10.048;2022-08-21T05:59:55;22.00;47.90
1135;DHT22;556;53.550;10.048;2022-08-21T06:02:22;22.00;47.90
1135;DHT22;556;53.550;10.048;2022-08-21T06:04:49;22.00;47.90
1135;DHT22;556;53.550;10.048;2022-08-21T06:07:16;22.00;47.90
1135;DHT22;556;53.550;10.048;2022-08-21T06:09:44;22.00;47.90
1135;DHT22;556;53.550;10.048;2022-08-21T06:12:12;22.10;47.90
1135;DHT22;556;53.550;10.048;2022-08-21T06:14:41;22.20;47.90
1135;DHT22;556;53.550;10.048;2022-08-21T06:17:10;22.30;47.80
1135;DHT22;556;53.550;10.048;2022-08-21T06:19:39;22.30;47.70
1135;DHT22;556;53.550;10.048;2022-08-21T06:22:06;22.50;47.50
1135;DHT22;556;53.550;10.048;2022-08-21T06:24:34;22.50;47.40
1135;DHT22;556;53.550;10.048;2022-08-21T06:27:04;22.60;47.40
1135;DHT22;556;53.550;10.048;2022-08-21T06:29:32;22.70;47.40
1135;DHT22;556;53.550;10.048;2022-08-21T06:32:01;22.70;47.20
1135;DHT22;556;53.550;10.048;2022-08-21T06:34:29;22.70;47.20
1135;DHT22;556;53.550;10.048;2022-08-21T06:36:57;22.70;47.20
1135;DHT22;556;53.550;10.048;2022-08-21T06:39:25;22.80;47.20
1135;DHT22;556;53.550;10.048;2022-08-21T06:41:52;22.80;47.00
1135;DHT22;556;53.550;10.048;2022-08-21T06:44:27;22.90;47.00
1135;DHT22;556;53.550;10.048;2022-08-21T06:46:54;22.80;46.40
1135;DHT22;556;53.550;10.048;2022-08-21T06:49:23;22.80;46.90
1135;DHT22;556;53.550;10.048;2022-08-21T06:51:50;22.70;46.80
1135;DHT22;556;53.550;10.048;2022-08-21T06:54:17;22.70;46.90
1135;DHT22;556;53.550;10.048;2022-08-21T06:56:44;22.70;47.00
1135;DHT22;556;53.550;10.048;2022-08-21T06:59:12;22.60;46.90
1135;DHT22;556;53.550;10.048;2022-08-21T07:01:39;22.50;46.80
1135;DHT22;556;53.550;10.048;2022-08-21T07:04:07;22.50;46.90
1135;DHT22;556;53.550;10.048;2022-08-21T07:06:36;22.50;47.00
1135;DHT22;556;53.550;10.048;2022-08-21T07:09:03;22.40;46.90
1135;DHT22;556;53.550;10.048;2022-08-21T07:11:31;22.30;46.80
1135;DHT22;556;53.550;10.048;2022-08-21T07:13:58;22.30;46.80
1135;DHT22;556;53.550;10.048;2022-08-21T07:16:26;22.30;46.30
1135;DHT22;556;53.550;10.048;2022-08-21T07:18:53;22.30;46.80
1135;DHT22;556;53.550;10.048;2022-08-21T07:21:23;22.30;46.80
1135;DHT22;556;53.550;10.048;2022-08-21T07:23:52;22.30;46.60
1135;DHT22;556;53.550;10.048;2022-08-21T07:26:21;22.40;46.50
1135;DHT22;556;53.550;10.048;2022-08-21T07:28:48;22.40;46.40
1135;DHT22;556;53.550;10.048;2022-08-21T07:31:18;22.50;46.40
1135;DHT22;556;53.550;10.048;2022-08-21T07:33:46;22.50;46.40
1135;DHT22;556;53.550;10.048;2022-08-21T07:36:14;22.50;46.40
1135;DHT22;556;53.550;10.048;2022-08-21T07:38:44;22.50;46.30
1135;DHT22;556;53.550;10.048;2022-08-21T07:41:16;22.60;46.20
1135;DHT22;556;53.550;10.048;2022-08-21T07:43:43;22.60;46.20
1135;DHT22;556;53.550;10.048;2022-08-21T07:46:13;22.70;46.10
1135;DHT22;556;53.550;10.048;2022-08-21T07:48:40;22.80;46.10
1135;DHT22;556;53.550;10.048;2022-08-21T07:51:11;22.90;46.00
1135;DHT22;556;53.550;10.048;2022-08-21T07:53:39;22.90;45.60
1135;DHT22;556;53.550;10.048;2022-08-21T07:56:07;22.90;46.00
1135;DHT22;556;53.550;10.048;2022-08-21T07:58:38;23.00;45.90
1135;DHT22;556;53.550;10.048;2022-08-21T08:01:05;23.00;45.90
1135;DHT22;556;53.550;10.048;2022-08-21T08:03:34;23.10;45.80
1135;DHT22;556;53.550;10.048;2022-08-21T08:06:05;23.20;45.70
1135;DHT22;556;53.550;10.048;2022-08-21T08:08:34;23.30;45.70
1135;DHT22;556;53.550;10.048;2022-08-21T08:11:04;23.40;45.70
1135;DHT22;556;53.550;10.048;2022-08-21T08:13:31;23.40;45.70
1135;DHT22;556;53.550;10.048;2022-08-21T08:16:00;23.50;45.60
1135;DHT22;556;53.550;10.048;2022-08-21T08:18:27;23.60;45.60
1135;DHT22;556;53.550;10.048;2022-08-21T08:20:54;23.60;45.50
1135;DHT22;556;53.550;10.048;2022-08-21T08:23:21;23.80;45.50
1135;DHT22;556;53.550;10.048;2022-08-21T08:25:49;23.90;45.30
1135;DHT22;556;53.550;10.048;2022-08-21T08:28:16;23.90;45.20
1135;DHT22;556;53.550;10.048;2022-08-21T08:30:44;24.00;45.20
1135;DHT22;556;53.550;10.048;2022-08-21T08:33:13;24.10;45.00
1135;DHT22;556;53.550;10.048;2022-08-21T08:35:42;24.20;45.00
1135;DHT22;556;53.550;10.048;2022-08-21T08:38:11;24.30;44.90
1135;DHT22;556;53.550;10.048;2022-08-21T08:40:47;24.40;44.80
1135;DHT22;556;53.550;10.048;2022-08-21T08:43:17;24.50;44.70
1135;DHT22;556;53.550;10.048;2022-08-21T08:45:50;24.60;44.70
1135;DHT22;556;53.550;10.048;2022-08-21T08:48:33;24.60;44.60
1135;DHT22;556;53.550;10.048;2022-08-21T08:51:07;24.70;44.50
1135;DHT22;556;53.550;10.048;2022-08-21T08:53:42;24.70;44.40
1135;DHT22;556;53.550;10.048;2022-08-21T08:56:12;24.80;44.40
1135;DHT22;556;53.550;10.048;2022-08-21T08:58:42;24.80;44.30
1135;DHT22;556;53.550;10.048;2022-08-21T09:01:15;25.00;44.30
1135;DHT22;556;53.550;10.048;2022-08-21T09:03:44;25.10;44.10
1135;DHT22;556;53.550;10.048;2022-08-21T09:06:36;25.20;44.00
1135;DHT22;556;53.550;10.048;2022-08-21T09:09:12;25.30;43.90
1135;DHT22;556;53.550;10.048;2022-08-21T09:11:48;25.40;43.90
1135;DHT22;556;53.550;10.048;2022-08-21T09:14:24;25.40;43.70
1135;DHT22;556;53.550;10.048;2022-08-21T09:16:59;25.30;43.60
1135;DHT22;556;53.550;10.048;2022-08-21T09:19:39;25.30;43.70
1135;DHT22;556;53.550;10.048;2022-08-21T09:22:15;25.40;43.60
1135;DHT22;556;53.550;10.048;2022-08-21T09:24:52;25.40;43.50
1135;DHT22;556;53.550;10.048;2022-08-21T09:27:22;25.40;43.40
1135;DHT22;556;53.550;10.048;2022-08-21T09:29:52;25.50;43.30
1135;DHT22;556;53.550;10.048;2022-08-21T09:32:22;25.50;43.20
1135;DHT22;556;53.550;10.048;2022-08-21T09:34:59;25.60;43.10
1135;DHT22;556;53.550;10.048;2022-08-21T09:37:28;25.60;43.00
1135;DHT22;556;53.550;10.048;2022-08-21T09:39:56;25.70;42.80
1135;DHT22;556;53.550;10.048;2022-08-21T09:42:26;25.80;42.70
1135;DHT22;556;53.550;10.048;2022-08-21T09:45:12;25.90;42.60
1135;DHT22;556;53.550;10.048;2022-08-21T09:47:40;25.80;42.50
1135;DHT22;556;53.550;10.048;2022-08-21T09:50:11;25.80;42.50
1135;DHT22;556;53.550;10.048;2022-08-21T09:52:47;25.90;42.50
1135;DHT22;556;53.550;10.048;2022-08-21T09:55:23;26.00;41.80
1135;DHT22;556;53.550;10.048;2022-08-21T09:58:10;26.00;42.20
1135;DHT22;556;53.550;10.048;2022-08-21T10:00:38;26.00;42.20
1135;DHT22;556;53.550;10.048;2022-08-21T10:03:13;26.00;42.80
1135;DHT22;556;53.550;10.048;2022-08-21T10:05:52;26.00;42.30
1135;DHT22;556;53.550;10.048;2022-08-21T10:08:22;26.00;42.30
1135;DHT22;556;53.550;10.048;2022-08-21T10:10:53;26.00;42.20
1135;DHT22;556;53.550;10.048;2022-08-21T10:13:26;26.30;42.00
1135;DHT22;556;53.550;10.048;2022-08-21T10:16:04;26.50;41.80
1135;DHT22;556;53.550;10.048;2022-08-21T10:18:38;26.70;41.60
1135;DHT22;556;53.550;10.048;2022-08-21T10:21:13;26.80;41.60
1135;DHT22;556;53.550;10.048;2022-08-21T10:23:51;26.70;41.40
1135;DHT22;556;53.550;10.048;2022-08-21T10:26:35;26.80;41.40
1135;DHT22;556;53.550;10.048;2022-08-21T10:29:20;26.70;41.50
1135;DHT22;556;53.550;10.048;2022-08-21T10:31:55;26.70;41.50
1135;DHT22;556;53.550;10.048;2022-08-21T10:34:34;26.70;41.40
1135;DHT22;556;53.550;10.048;2022-08-21T10:37:17;26.70;41.40
1135;DHT22;556;53.550;10.048;2022-08-21T10:39:52;26.70;41.40
1135;DHT22;556;53.550;10.048;2022-08-21T10:42:32;26.80;41.40
1135;DHT22;556;53.550;10.048;2022-08-21T10:45:10;26.80;41.10
1135;DHT22;556;53.550;10.048;2022-08-21T10:47:44;26.90;41.10
1135;DHT22;556;53.550;10.048;2022-08-21T10:50:19;27.10;40.90
1135;DHT22;556;53.550;10.048;2022-08-21T10:53:00;27.30;40.80
1135;DHT22;556;53.550;10.048;2022-08-21T10:55:35;27.30;40.60
1135;DHT22;556;53.550;10.048;2022-08-21T10:58:08;27.30;40.50
1135;DHT22;556;53.550;10.048;2022-08-21T11:00:40;27.40;40.50
1135;DHT22;556;53.550;10.048;2022-08-21T11:03:13;27.40;40.30
1135;DHT22;556;53.550;10.048;2022-08-21T11:05:48;27.50;40.30
1135;DHT22;556;53.550;10.048;2022-08-21T11:08:23;27.50;40.10
1135;DHT22;556;53.550;10.048;2022-08-21T11:10:58;27.50;40.10
1135;DHT22;556;53.550;10.048;2022-08-21T11:13:32;27.60;40.00
1135;DHT22;556;53.550;10.048;2022-08-21T11:16:07;27.60;39.70
1135;DHT22;556;53.550;10.048;2022-08-21T11:18:39;27.60;40.10
1135;DHT22;556;53.550;10.048;2022-08-21T11:21:31;27.80;38.70
1135;DHT22;556;53.550;10.048;2022-08-21T11:24:09;27.90;39.00
1135;DHT22;556;53.550;10.048;2022-08-21T11:26:45;28.10;38.90
1135;DHT22;556;53.550;10.048;2022-08-21T11:29:17;28.10;38.70
1135;DHT22;556;53.550;10.048;2022-08-21T11:31:56;28.00;38.70
1135;DHT22;556;53.550;10.048;2022-08-21T11:34:36;27.90;38.70
1135;DHT22;556;53.550;10.048;2022-08-21T11:37:12;27.80;38.60
1135;DHT22;556;53.550;10.048;2022-08-21T11:39:52;27.80;38.50
1135;DHT22;556;53.550;10.048;2022-08-21T11:42:26;27.70;38.80
1135;DHT22;556;53.550;10.048;2022-08-21T11:45:00;27.80;38.20
1135;DHT22;556;53.550;10.048;2022-08-21T11:47:35;27.70;38.00
1135;DHT22;556;53.550;10.048;2022-08-21T11:50:14;27.80;37.70
1135;DHT22;556;53.550;10.048;2022-08-21T11:52:44;27.90;37.50
1135;DHT22;556;53.550;10.048;2022-08-21T11:55:18;28.00;37.40
1135;DHT22;556;53.550;10.048;2022-08-21T11:57:52;28.20;37.20
1135;DHT22;556;53.550;10.048;2022-08-21T12:00:24;28.30;37.00
1135;DHT22;556;53.550;10.048;2022-08-21T12:02:55;28.30;36.90
1135;DHT22;556;53.550;10.048;2022-08-21T12:05:27;28.40;36.90
1135;DHT22;556;53.550;10.048;2022-08-21T12:08:05;28.40;36.80
1135;DHT22;556;53.550;10.048;2022-08-21T12:10:37;28.30;36.70
1135;DHT22;556;53.550;10.048;2022-08-21T12:13:08;28.30;36.10
1135;DHT22;556;53.550;10.048;2022-08-21T12:15:37;28.30;36.80
1135;DHT22;556;53.550;10.048;2022-08-21T12:18:06;28.40;36.50
1135;DHT22;556;53.550;10.048;2022-08-21T12:20:58;28.40;36.30
1135;DHT22;556;53.550;10.048;2022-08-21T12:23:29;28.40;36.20
1135;DHT22;556;53.550;10.048;2022-08-21T12:26:11;28.40;36.00
1135;DHT22;556;53.550;10.048;2022-08-21T12:28:40;28.50;35.90
1135;DHT22;556;53.550;10.048;2022-08-21T12:31:18;28.60;35.80
1135;DHT22;556;53.550;10.048;2022-08-21T12:33:52;28.70;35.50
1135;DHT22;556;53.550;10.048;2022-08-21T12:36:23;28.90;35.30
1135;DHT22;556;53.550;10.048;2022-08-21T12:38:54;29.00;35.10
1135;DHT22;556;53.550;10.048;2022-08-21T12:41:28;29.00;34.90
1135;DHT22;556;53.550;10.048;2022-08-21T12:43:59;29.20;34.90
1135;DHT22;556;53.550;10.048;2022-08-21T12:46:34;29.30;34.60
1135;DHT22;556;53.550;10.048;2022-08-21T12:49:08;29.30;34.70
1135;DHT22;556;53.550;10.048;2022-08-21T12:51:48;29.50;34.60
1135;DHT22;556;53.550;10.048;2022-08-21T12:54:26;29.80;34.40
1135;DHT22;556;53.550;10.048;2022-08-21T12:57:02;30.10;34.40
1135;DHT22;556;53.550;10.048;2022-08-21T12:59:30;30.30;34.20
1135;DHT22;556;53.550;10.048;2022-08-21T13:02:00;30.60;34.30
1135;DHT22;556;53.550;10.048;2022-08-21T13:04:35;31.10;34.10
1135;DHT22;556;53.550;10.048;2022-08-21T13:07:07;31.80;33.70
1135;DHT22;556;53.550;10.048;2022-08-21T13:09:41;32.40;33.30
1135;DHT22;556;53.550;10.048;2022-08-21T13:12:11;32.90;32.80
1135;DHT22;556;53.550;10.048;2022-08-21T13:14:41;33.40;32.30
1135;DHT22;556;53.550;10.048;2022-08-21T13:17:10;33.70;31.70
1135;DHT22;556;53.550;10.048;2022-08-21T13:19:38;34.10;31.60
1135;DHT22;556;53.550;10.048;2022-08-21T13:22:13;34.70;31.20
1135;DHT22;556;53.550;10.048;2022-08-21T13:24:40;35.50;30.70
1135;DHT22;556;53.550;10.048;2022-08-21T13:27:19;36.40;30.40
1135;DHT22;556;53.550;10.048;2022-08-21T13:29:46;37.30;29.80
1135;DHT22;556;53.550;10.048;2022-08-21T13:32:22;37.60;29.60
1135;DHT22;556;53.550;10.048;2022-08-21T13:34:50;37.90;29.20
1135;DHT22;556;53.550;10.048;2022-08-21T13:37:19;38.40;29.20
1135;DHT22;556;53.550;10.048;2022-08-21T13:39:50;38.70;28.90
1135;DHT22;556;53.550;10.048;2022-08-21T13:42:20;38.90;28.60
1135;DHT22;556;53.550;10.048;2022-08-21T13:44:52;38.90;28.20
1135;DHT22;556;53.550;10.048;2022-08-21T13:47:19;38.70;28.10
1135;DHT22;556;53.550;10.048;2022-08-21T13:49:49;38.80;28.00
1135;DHT22;556;53.550;10.048;2022-08-21T13:52:19;39.30;27.70
1135;DHT22;556;53.550;10.048;2022-08-21T13:54:53;39.90;27.50
1135;DHT22;556;53.550;10.048;2022-08-21T13:57:27;40.50;27.10
1135;DHT22;556;53.550;10.048;2022-08-21T14:00:10;40.90;26.70
1135;DHT22;556;53.550;10.048;2022-08-21T14:02:40;40.80;26.20
1135;DHT22;556;53.550;10.048;2022-08-21T14:05:16;40.60;26.40
1135;DHT22;556;53.550;10.048;2022-08-21T14:07:46;39.80;25.90
1135;DHT22;556;53.550;10.048;2022-08-21T14:10:19;39.70;26.20
1135;DHT22;556;53.550;10.048;2022-08-21T14:12:52;39.50;26.20
1135;DHT22;556;53.550;10.048;2022-08-21T14:15:24;39.70;26.10
1135;DHT22;556;53.550;10.048;2022-08-21T14:17:52;39.90;25.90
1135;DHT22;556;53.550;10.048;2022-08-21T14:20:31;39.80;25.80
1135;DHT22;556;53.550;10.048;2022-08-21T14:22:59;39.50;25.60
1135;DHT22;556;53.550;10.048;2022-08-21T14:25:30;39.20;26.10
1135;DHT22;556;53.550;10.048;2022-08-21T14:28:15;39.00;25.60
1135;DHT22;556;53.550;10.048;2022-08-21T14:30:46;39.10;25.50
1135;DHT22;556;53.550;10.048;2022-08-21T14:33:18;39.00;25.60
1135;DHT22;556;53.550;10.048;2022-08-21T14:35:47;39.40;25.40
1135;DHT22;556;53.550;10.048;2022-08-21T14:38:16;39.60;25.30
1135;DHT22;556;53.550;10.048;2022-08-21T14:40:47;39.80;25.20
1135;DHT22;556;53.550;10.048;2022-08-21T14:43:16;39.90;25.00
1135;DHT22;556;53.550;10.048;2022-08-21T14:45:44;40.20;24.80
1135;DHT22;556;53.550;10.048;2022-08-21T14:48:12;40.30;24.60
1135;DHT22;556;53.550;10.048;2022-08-21T14:50:39;39.90;24.60
1135;DHT22;556;53.550;10.048;2022-08-21T14:53:07;39.60;24.70
1135;DHT22;556;53.550;10.048;2022-08-21T14:55:35;39.50;25.00
1135;DHT22;556;53.550;10.048;2022-08-21T14:58:19;39.40;24.70
1135;DHT22;556;53.550;10.048;2022-08-21T15:00:49;39.50;25.10
1135;DHT22;556;53.550;10.048;2022-08-21T15:03:16;39.50;24.50
1135;DHT22;556;53.550;10.048;2022-08-21T15:05:43;39.50;24.40
1135;DHT22;556;53.550;10.048;2022-08-21T15:08:10;39.80;24.30
1135;DHT22;556;53.550;10.048;2022-08-21T15:10:37;39.80;24.20
1135;DHT22;556;53.550;10.048;2022-08-21T15:13:05;39.60;24.30
1135;DHT22;556;53.550;10.048;2022-08-21T15:15:37;39.50;24.40
1135;DHT22;556;53.550;10.048;2022-08-21T15:18:05;39.50;24.30
1135;DHT22;556;53.550;10.048;2022-08-21T15:20:33;39.60;24.10
1135;DHT22;556;53.550;10.048;2022-08-21T15:23:00;39.90;24.10
1135;DHT22;556;53.550;10.048;2022-08-21T15:25:27;39.90;23.90
1135;DHT22;556;53.550;10.048;2022-08-21T15:27:54;39.90;24.00
1135;DHT22;556;53.550;10.048;2022-08-21T15:30:22;40.30;24.00
1135;DHT22;556;53.550;10.048;2022-08-21T15:32:50;40.40;23.90
1135;DHT22;556;53.550;10.048;2022-08-21T15:35:18;40.70;23.80
1135;DHT22;556;53.550;10.048;2022-08-21T15:37:45;40.70;23.70
1135;DHT22;556;53.550;10.048;2022-08-21T15:40:12;41.00;23.80
1135;DHT22;556;53.550;10.048;2022-08-21T15:42:40;41.20;23.70
1135;DHT22;556;53.550;10.048;2022-08-21T15:45:09;41.30;23.50
1135;DHT22;556;53.550;10.048;2022-08-21T15:47:37;40.80;23.50
1135;DHT22;556;53.550;10.048;2022-08-21T15:50:08;40.70;23.60
1135;DHT22;556;53.550;10.048;2022-08-21T15:52:35;40.50;23.50
1135;DHT22;556;53.550;10.048;2022-08-21T15:55:03;40.30;23.40
1135;DHT22;556;53.550;10.048;2022-08-21T15:57:31;40.10;23.40
1135;DHT22;556;53.550;10.048;2022-08-21T15:59:59;39.80;23.40
1135;DHT22;556;53.550;10.048;2022-08-21T16:02:39;39.40;23.50
1135;DHT22;556;53.550;10.048;2022-08-21T16:05:09;39.10;23.70
1135;DHT22;556;53.550;10.048;2022-08-21T16:07:37;39.00;23.70
1135;DHT22;556;53.550;10.048;2022-08-21T16:10:06;38.90;23.80
1135;DHT22;556;53.550;10.048;2022-08-21T16:12:36;38.70;23.70
1135;DHT22;556;53.550;10.048;2022-08-21T16:15:08;38.90;23.80
1135;DHT22;556;53.550;10.048;2022-08-21T16:17:37;38.90;23.70
1135;DHT22;556;53.550;10.048;2022-08-21T16:20:11;38.90;23.70
1135;DHT22;556;53.550;10.048;2022-08-21T16:22:38;39.00;23.80